Terminal Aerodrome Forecast
Issued by NWS

Home | Current Version | Previous Version | Graphics & Text | Print | Product List | Glossary On
Versions: 1 2 3 4 5 6 7 8 9 10 11 12 13 14 15 16 17 18 19 20 21 22 23 24 25 26 27 28 29 30 31 32
000
FTUS43 KLOT 261400 AAA
TAFORD
TAF AMD
KORD 261403Z 2614/2718 25007KT P6SM VCTS SCT060CB BKN100
     FM261600 36008KT P6SM VCTS SCT020 BKN050CB
     FM261700 02007KT P6SM BKN040
     FM262000 03007KT P6SM SCT040 BKN250
     FM270000 06006KT P6SM FEW150 BKN250
     FM270700 03006KT P6SM BKN070 PROB30 2712/2716 5SM TSRA
      BKN040CB=

USA.gov is the U.S. government's official web portal to all federal, state and local government web resources and services.